Webcam Castelli Romani more information Webcam Castelli Romani


Webcam Traffico live more information Webcam Traffico live


altri nostri siti meteo:

Meteo-CloudBanner Meteo-Cloud

Pomeziameteo 1Sito sul meteo

Pomeziameteo DashboardSito sul meteo

Caput FrigorisSito sul meteo

BarcellonameteoSito sul meteo

MeteoipassiSito sul meteo

ViterbometeoSito sul meteo

TortoretometeolidoSito sul meteo

MeteospinacetoSito sul meteo

MeteoardeaSito sul meteo

MeteopalestrinaSito sul meteo

MeteocastelliSito sul meteo

MeteoiserniaSito sul meteo

RomaeurmeteoSito sul meteo

MeteomarconiaSito sul meteo

CastelnuovovomanometeoSito sul meteo

MeteogonzagaSito sul meteo

MeteonetworkInvio dai a Meteonetwork

Rete Linea MeteoInvio dai a Meteonetwork

DesotermicaBanner Desotermica



Non è richiesta alcuna attenzione speciale.    Non sono presenti avvisi meteorologici di particolare rilevanza

Select another period ( hide this area )

Unita Periodo Custom range Directly to
Metrico Inglese Entrambi
Quotidiano Settimanale mensile Annuale
use both date-selectors for a custom range
previous Day
With this date

WeatherUnderground graphs for this period ( click here )


Quotidiano Riepilogo per Venerdi' 18 gennaio 2019
Tempo Temp. ( °C ) Dew pt. ( °C ) Vento ( km/h ) da Raffica ( km/h ) Pressione ( hPa ) Humid.( % ) Rainrate ( cm ) solare ( W/m2 )
Max13,6 10,2 12,9 SE ( 139/316 ) 19,3 1013,8 92 2,30 617
Media11,0 8,2 1,4 calma #169/233 6,1 1012,3 84 1,70 186 #112/233
Min9,3 6,2 -   0,0 1011,4 69 -  
Quotidiano Tabular details for Venerdi' 18 gennaio 2019
Tempo Temp. ( °C ) Dew pt. ( °C ) Vento ( km/h ) da Raffica ( km/h ) Pressione ( hPa ) Humid.( % ) Rainrate ( cm ) solare ( W/m2 )
00:00 9,4 8,1   calma 8,0 1013,8 92 - -
00:05 9,4 8,2   calma 8,0 1013,8 92 0,30 -
00:10 9,4 8,2   calma   1013,8 92 0,30 -
00:15 9,4 8,2 8,0 SE 11,3 1013,8 92 0,30 -
00:20 9,5 8,2   calma 12,9 1013,8 92 0,30 -
00:25 9,5 8,2   calma 12,9 1013,8 92 0,30 -
00:30 9,5 8,2 6,4 SE 11,3 1013,8 92 0,30 -
00:35 9,6 8,3   calma 11,3 1013,8 92 0,30 -
00:40 9,6 8,3   calma   1013,8 92 0,30 -
00:45 9,5 8,2   calma   1013,4 92 0,30 -
00:50 9,5 8,2 6,4 SE 8,0 1013,8 92 0,30 -
00:55 9,5 8,2   calma 8,0 1013,4 92 0,30 -
01:00 9,6 8,3   calma   1013,4 92 0,30 -
01:05 9,6 8,3   calma   1013,4 92 - -
01:10 9,6 8,3 4,8 SE 6,4 1013,4 92 - -
01:15 9,6 8,3   calma 8,0 1013,4 92 - -
01:20 9,6 8,3   calma   1013,4 92 - -
01:25 9,6 8,3 6,4 SE 11,3 1013,4 92 - -
01:30 9,6 8,3   calma 6,4 1013,4 92 - -
01:35 9,6 8,3 4,8 SE 9,7 1013,1 92 - -
01:40 9,6 8,3   calma 6,4 1013,1 92 - -
01:45 9,5 8,2   calma   1013,1 92 - -
01:50 9,5 8,2 6,4 SE 8,0 1013,1 92 - -
01:55 9,5 8,2 4,8 SE 8,0 1013,1 92 - -
02:00 9,4 8,2   calma 6,4 1013,1 92 - -
02:05 9,4 8,2   calma 4,8 1013,1 92 - -
02:10 9,4 8,2   calma 8,0 1013,1 92 - -
02:15 9,4 8,1 6,4 SE 11,3 1013,1 92 - -
02:20 9,3 8,1   calma 8,0 1013,1 92 - -
02:25 9,3 8,1 3,2 SE 6,4 1013,1 92 - -
02:30 9,3 8,0   calma 4,8 1013,1 92 - -
02:35 9,3 8,0   calma   1013,1 92 - -
02:40 9,3 8,0 6,4 SE 11,3 1013,1 92 - -
02:45 9,3 8,0 11,3 SE 12,9 1013,1 92 - -
02:50 9,3 8,0   calma 11,3 1013,1 92 - -
02:55 9,3 8,0 4,8 S 14,5 1012,8 92 - -
03:00 9,3 8,0 6,4 SE 12,9 1012,8 92 - -
03:05 9,3 8,0 9,7 S 11,3 1012,8 92 - -
03:10 9,3 8,0   calma 14,5 1012,8 92 - -
03:15 9,3 8,0   calma 1,6 1012,8 92 - -
03:20 9,3 8,1 4,8 SE 12,9 1012,4 92 - -
03:25 9,3 8,1 6,4 SE 11,3 1012,4 92 - -
03:30 9,3 8,1 4,8 S 14,5 1012,4 92 - -
03:35 9,3 8,1 9,7 S 11,3 1012,4 92 - -
03:40 9,4 8,1   calma 9,7 1012,4 92 - -
03:45 9,4 8,2   calma 12,9 1012,4 92 - -
03:50 9,5 8,2   calma 6,4 1012,4 92 - -
03:55 9,5 8,2 8,0 SE 11,3 1012,1 92 - -
04:00 9,5 8,2   calma 12,9 1012,1 92 - -
04:05 9,6 8,3   calma 8,0 1012,4 92 0,50 -
04:10 9,6 8,3   calma   1012,1 92 0,50 -
04:15 9,6 8,3   calma   1012,1 92 0,80 -
04:20 9,6 8,3   calma   1012,1 92 0,80 -
04:25 9,6 8,3   calma   1012,1 92 0,80 -
04:30 9,6 8,3   calma   1012,1 92 0,80 -
04:35 9,7 8,4   calma   1012,1 92 0,80 -
04:40 9,7 8,4   calma   1012,1 92 0,80 -
04:45 9,7 8,4   calma   1012,1 92 1,30 -
04:50 9,7 8,4   calma   1011,7 92 1,30 -
04:55 9,8 8,5   calma 6,4 1011,7 92 1,50 -
05:00 9,8 8,5   calma   1011,7 92 1,50 -
05:05 9,8 8,5   calma   1011,7 92 1,50 -
05:10 9,8 8,5   calma   1011,7 92 2,30 -
05:15 9,8 8,5   calma   1011,4 92 2,00 -
05:20 9,8 8,5   calma   1011,7 92 2,00 -
05:25 9,8 8,5   calma   1011,4 92 2,00 -
05:30 9,8 8,5   calma   1011,4 92 2,00 -
05:35 9,8 8,5   calma   1011,7 92 2,00 -
05:40 9,7 8,4   calma   1011,4 92 2,00 -
05:45 9,7 8,4   calma   1011,4 92 1,50 -
05:50 9,6 8,3   calma   1011,4 92 1,50 -
05:55 9,6 8,3   calma 4,8 1011,4 92 1,30 -
06:00 9,5 8,2   calma   1011,7 92 1,30 -
06:05 9,5 8,2   calma   1011,7 92 0,80 -
06:10 9,6 8,3   calma   1011,4 92 - -
06:15 9,6 8,3   calma   1011,4 92 - -
06:20 9,6 8,3   calma   1011,4 92 - -
06:25 9,5 8,2   calma   1011,4 92 - -
06:30 9,4 8,2   calma   1011,4 92 - -
06:35 9,4 8,2   calma   1011,7 92 - -
06:40 9,4 8,2   calma   1011,7 92 - -
06:45 9,4 8,2   calma   1011,7 92 - -
06:50 9,5 8,2   calma   1011,7 92 - -
06:55 9,5 8,2   calma   1011,7 92 - -
07:00 9,5 8,2   calma   1011,7 92 - -
07:05 9,5 8,2   calma   1011,4 92 - -
07:10 9,5 8,2   calma   1011,4 92 - -
07:15 9,5 8,2   calma   1011,4 92 - -
07:20 9,5 8,2   calma   1011,4 92 - -
07:25 9,5 8,2   calma   1011,7 92 - -
07:30 9,5 8,2   calma   1011,7 92 - -
07:35 9,6 8,3   calma   1011,7 92 - -
07:40 9,7 8,4   calma   1011,7 92 - -
07:45 9,8 8,5   calma   1011,7 92 - -
07:50 9,8 8,5   calma   1011,7 92 - 7
07:55 9,7 8,3 8,0 SE 8,0 1011,7 91 - 9
08:00 9,7 8,3 4,8 SE 11,3 1011,7 91 - 9
08:05 9,7 8,2   calma 11,3 1011,7 91 - 11
08:10 9,6 8,2   calma 1,6 1011,7 91 - 11
08:15 9,6 8,3   calma 12,9 1011,7 92 - 12
08:20 9,7 8,2 1,6 SE 12,9 1011,7 91 - 12
08:25 9,7 8,4 4,8 SE 12,9 1011,7 92 - 14
08:30 9,7 8,3 1,6 S 16,1 1012,1 91 - 18
08:35 9,7 8,3   calma 11,3 1012,1 91 - 28
08:40 9,8 8,3   calma   1012,1 91 - 44
08:45 9,7 8,3 11,3 SE 11,3 1012,1 91 - 70
08:50 9,8 8,5   calma 9,7 1012,1 92 - 97
08:55 9,8 8,6   calma 16,1 1012,1 92 - 114
09:00 9,9 8,7   calma 1,6 1012,1 92 - 139
09:05 10,1 8,8   calma 14,5 1012,1 92 - 213
09:10 10,2 8,9 12,9 S 12,9 1012,1 92 - 315
09:15 10,4 9,1   calma 14,5 1012,4 92 - 239
09:20 10,6 9,3   calma 6,4 1012,4 92 - 279
09:25 10,7 9,2   calma 4,8 1012,4 91 - 410
09:30 10,8 9,4 12,9 S 16,1 1012,4 91 - 381
09:35 11,0 9,6   calma 16,1 1012,4 91 - 397
09:40 11,1 9,5   calma 16,1 1012,4 90 - 158
09:45 11,2 9,6 6,4 SE 8,0 1012,4 90 0,30 151
09:50 11,3 9,7 1,6 SE 12,9 1012,4 90 0,30 190
09:55 11,3 9,7   calma 6,4 1012,4 90 0,30 185
10:00 11,3 9,7   calma 3,2 1012,4 90 0,30 144
10:05 11,3 9,5   calma 14,5 1012,4 89 0,30 199
10:10 11,4 9,6 8,0 S 12,9 1012,4 89 0,30 230
10:15 11,5 9,7   calma 14,5 1012,4 89 0,30 250
10:20 11,5 9,6   calma 17,7 1012,8 88 0,30 185
10:25 11,5 9,6   calma 16,1 1012,8 88 0,30 111
10:30 11,4 9,5   calma 12,9 1012,8 88 0,30 176
10:35 11,5 9,6   calma   1012,8 88 0,30 232
10:40 11,7 9,7   calma   1012,8 88 0,30 299
10:45 11,8 9,9   calma   1012,8 88 - 315
10:50 12,1 10,1   calma 6,4 1012,8 88 - 158
10:55 12,1 10,0   calma   1012,8 87 - 171
11:00 12,2 10,1   calma 8,0 1012,8 87 - 172
11:05 12,3 10,2   calma   1012,8 87 - 279
11:10 12,5 10,2   calma 6,4 1012,8 86 - 250
11:15 12,6 9,9   calma 1,6 1012,4 84 - 325
11:20 12,8 9,9   calma   1012,4 83 - 199
11:25 12,9 9,7 1,6 S 9,7 1012,4 81 - 213
11:30 13,1 9,7   calma 8,0 1012,4 80 - 158
11:35 13,1 9,4 1,6 West 11,3 1012,4 79 - 118
11:40 13,0 9,4   calma 6,4 1012,4 79 - 151
11:45 13,0 9,4   calma 16,1 1012,4 79 - 204
11:50 13,0 9,4   calma   1012,4 79 - 244
11:55 13,0 9,2 3,2 Sud 17,7 1012,4 78 - 167
12:00 13,0 9,2 8,0 Sud 16,1 1012,4 78 - 239
12:05 13,0 9,1 11,3 SW 17,7 1012,1 77 - 211
12:10 13,1 9,1   calma 19,3 1012,1 77 - 573
12:15 13,3 9,3   calma 12,9 1012,1 77 - 617
12:20 13,5 9,5 1,6 SW 8,0 1012,1 77 - 192
12:25 13,4 9,4   calma 8,0 1012,1 77 - 246
12:30 13,4 9,4 1,6 S 3,2 1012,1 77 - 223
12:35 13,4 9,4 4,8 West 12,9 1012,1 77 - 274
12:40 13,3 9,2   calma 11,3 1012,1 76 - 206
12:45 13,3 8,9 3,2 Sud 8,0 1012,1 75 - 185
12:50 13,2 8,4   calma 11,3 1012,1 73 - 214
12:55 13,2 8,7 1,6 W 11,3 1012,1 74 - 202
13:00 13,3 8,7 3,2 Sud 12,9 1012,1 74 - 394
13:05 13,2 8,7 3,2 SE 16,1 1012,1 74 - 165
13:10 13,2 8,6 1,6 Oriente 8,0 1012,1 74 - 202
13:15 13,1 8,3   calma 11,3 1012,1 73 - 281
13:20 13,1 8,3 3,2 West 14,5 1012,1 73 - 165
13:25 13,1 8,3   calma 16,1 1012,1 73 - 221
13:30 13,2 8,2 6,4 Nord 17,7 1012,1 72 - 494
13:35 13,3 8,2 3,2 NE 14,5 1012,1 71 - 457
13:40 13,3 7,9 3,2 NO 14,5 1012,1 70 - 141
13:45 13,3 8,1 1,6 Sud 9,7 1012,1 71 - 230
13:50 13,2 8,0   calma 9,7 1012,1 71 - 278
13:55 13,2 7,8 4,8 West 11,3 1012,1 70 - 229
14:00 13,2 7,8 4,8 Nord 11,3 1012,1 70 - 432
14:05 13,3 7,7 3,2 Nord 9,7 1012,1 69 - 207
14:10 13,2 7,6 1,6 SE 8,0 1011,7 69 - 204
14:15 13,3 7,9   calma 4,8 1011,7 70 - 369
14:20 13,4 8,2 3,2 SE 12,9 1011,7 71 - 362
14:25 13,4 8,3 1,6 Nord 6,4 1011,7 71 - 353
14:30 13,4 8,3 6,4 W 14,5 1011,7 71 - 350
14:35 13,4 7,8 6,4 NO 11,3 1012,1 69 - 339
14:40 13,4 7,8 1,6 West 9,7 1011,7 69 - 396
14:45 13,6 8,2 1,6 S 12,9 1011,7 70 - 359
14:50 13,5 8,1   calma 9,7 1012,1 70 - 98
14:55 13,3 8,2   calma 14,5 1011,7 71 - 105
15:00 13,2 8,4 3,2 NNW 6,4 1011,7 73 - 139
15:05 13,1 8,3 3,2 SE 8,0 1011,7 73 - 113
15:10 13,0 8,2 3,2 SW 6,4 1011,7 73 - 281
15:15 13,1 8,1   calma 8,0 1011,7 72 - 283
15:20 13,1 8,2   calma 4,8 1011,7 72 - 79
15:25 13,1 8,1   calma 4,8 1011,7 72 - 77
15:30 13,0 8,1   calma 4,8 1012,1 72 - 84
15:35 12,9 8,0   calma 1,6 1012,1 72 - 93
15:40 12,9 8,1   calma 4,8 1012,1 73 - 253
15:45 12,9 8,1   calma 9,7 1012,1 73 - 146
15:50 12,8 8,3   calma 3,2 1012,1 74 - 114
15:55 12,8 8,1   calma 12,9 1012,1 73 - 127
16:00 12,7 7,7 1,6 NE 8,0 1012,1 72 - 67
16:05 12,6 7,6 1,6 W 11,3 1012,1 72 - 53
16:10 12,5 7,3   calma 4,8 1012,1 71 - 44
16:15 12,4 7,5   calma 4,8 1012,1 72 - 39
16:20 12,4 7,2   calma 3,2 1012,1 71 - 37
16:25 12,3 7,3   calma   1012,1 72 - 35
16:30 12,2 7,3   calma 3,2 1012,1 72 - 39
16:35 12,2 7,2   calma 4,8 1012,1 72 - 25
16:40 12,1 7,2   calma 1,6 1012,1 72 - 14
16:45 12,1 7,2   calma   1012,1 72 - 12
16:50 12,1 7,1   calma 1,6 1012,1 72 - 14
16:55 12,0 7,1   calma   1012,1 72 - 11
17:00 11,9 7,2   calma   1012,4 73 - 9
17:05 11,9 7,2   calma   1012,4 73 - 7
17:10 11,8 7,1   calma   1012,4 73 - -
17:15 11,8 7,1   calma   1012,1 73 - -
17:20 11,7 6,9   calma   1012,4 73 - -
17:25 11,6 6,8   calma   1012,4 73 - -
17:30 11,4 6,7   calma   1012,1 73 - -
17:35 11,3 6,8   calma   1012,1 74 - -
17:40 11,3 6,8   calma   1012,1 74 - -
17:45 11,2 6,7   calma 3,2 1012,1 74 - -
17:50 11,1 6,6   calma   1012,1 74 - -
17:55 11,1 6,6   calma   1012,1 74 - -
18:00 11,0 6,7   calma   1012,1 75 - -
18:05 10,9 6,7   calma   1012,4 75 - -
18:10 10,9 6,6   calma   1012,4 75 - -
18:15 10,8 6,6   calma   1012,4 75 - -
18:20 10,8 6,5   calma   1012,4 75 - -
18:25 10,7 6,4   calma   1012,4 75 - -
18:30 10,7 6,4   calma   1012,4 75 - -
18:35 10,7 6,4   calma   1012,4 75 - -
18:40 10,6 6,6   calma   1012,4 76 - -
18:45 10,6 6,5   calma   1012,4 76 - -
18:50 10,5 6,4   calma   1012,4 76 - -
18:55 10,4 6,4   calma   1012,8 76 - -
19:00 10,4 6,4   calma   1012,8 76 - -
19:05 10,4 6,4   calma   1012,8 76 - -
19:10 10,4 6,2   calma   1012,8 75 - -
19:15 10,5 6,2   calma   1012,4 75 - -
19:20 10,4 6,2   calma   1012,4 75 - -
Quotidiano Riepilogo per Venerdi' 18 gennaio 2019
Tempo Temp. ( °C ) Dew pt. ( °C ) Vento ( km/h ) da Raffica ( km/h ) Pressione ( hPa ) Humid.( % ) Rainrate ( cm ) solare ( W/m2 )
Max13,6 10,2 12,9 SE ( 139/316 ) 19,3 1013,8 92 2,30 617
Media11,0 8,2 1,4 calma #169/233 6,1 1012,3 84 1,70 186 #112/233
Min9,3 6,2 -   0,0 1011,4 69 -  
Quotidiano Tabular details for Venerdi' 18 gennaio 2019
Tempo Temp. ( °C ) Dew pt. ( °C ) Vento ( km/h ) da Raffica ( km/h ) Pressione ( hPa ) Humid.( % ) Rainrate ( cm ) solare ( W/m2 )
00:00 9,4 8,1   calma 8,0 1013,8 92 - -
00:05 9,4 8,2   calma 8,0 1013,8 92 0,30 -
00:10 9,4 8,2   calma   1013,8 92 0,30 -
00:15 9,4 8,2 8,0 SE 11,3 1013,8 92 0,30 -
00:20 9,5 8,2   calma 12,9 1013,8 92 0,30 -
00:25 9,5 8,2   calma 12,9 1013,8 92 0,30 -
00:30 9,5 8,2 6,4 SE 11,3 1013,8 92 0,30 -
00:35 9,6 8,3   calma 11,3 1013,8 92 0,30 -
00:40 9,6 8,3   calma   1013,8 92 0,30 -
00:45 9,5 8,2   calma   1013,4 92 0,30 -
00:50 9,5 8,2 6,4 SE 8,0 1013,8 92 0,30 -
00:55 9,5 8,2   calma 8,0 1013,4 92 0,30 -
01:00 9,6 8,3   calma   1013,4 92 0,30 -
01:05 9,6 8,3   calma   1013,4 92 - -
01:10 9,6 8,3 4,8 SE 6,4 1013,4 92 - -
01:15 9,6 8,3   calma 8,0 1013,4 92 - -
01:20 9,6 8,3   calma   1013,4 92 - -
01:25 9,6 8,3 6,4 SE 11,3 1013,4 92 - -
01:30 9,6 8,3   calma 6,4 1013,4 92 - -
01:35 9,6 8,3 4,8 SE 9,7 1013,1 92 - -
01:40 9,6 8,3   calma 6,4 1013,1 92 - -
01:45 9,5 8,2   calma   1013,1 92 - -
01:50 9,5 8,2 6,4 SE 8,0 1013,1 92 - -
01:55 9,5 8,2 4,8 SE 8,0 1013,1 92 - -
02:00 9,4 8,2   calma 6,4 1013,1 92 - -
02:05 9,4 8,2   calma 4,8 1013,1 92 - -
02:10 9,4 8,2   calma 8,0 1013,1 92 - -
02:15 9,4 8,1 6,4 SE 11,3 1013,1 92 - -
02:20 9,3 8,1   calma 8,0 1013,1 92 - -
02:25 9,3 8,1 3,2 SE 6,4 1013,1 92 - -
02:30 9,3 8,0   calma 4,8 1013,1 92 - -
02:35 9,3 8,0   calma   1013,1 92 - -
02:40 9,3 8,0 6,4 SE 11,3 1013,1 92 - -
02:45 9,3 8,0 11,3 SE 12,9 1013,1 92 - -
02:50 9,3 8,0   calma 11,3 1013,1 92 - -
02:55 9,3 8,0 4,8 S 14,5 1012,8 92 - -
03:00 9,3 8,0 6,4 SE 12,9 1012,8 92 - -
03:05 9,3 8,0 9,7 S 11,3 1012,8 92 - -
03:10 9,3 8,0   calma 14,5 1012,8 92 - -
03:15 9,3 8,0   calma 1,6 1012,8 92 - -
03:20 9,3 8,1 4,8 SE 12,9 1012,4 92 - -
03:25 9,3 8,1 6,4 SE 11,3 1012,4 92 - -
03:30 9,3 8,1 4,8 S 14,5 1012,4 92 - -
03:35 9,3 8,1 9,7 S 11,3 1012,4 92 - -
03:40 9,4 8,1   calma 9,7 1012,4 92 - -
03:45 9,4 8,2   calma 12,9 1012,4 92 - -
03:50 9,5 8,2   calma 6,4 1012,4 92 - -
03:55 9,5 8,2 8,0 SE 11,3 1012,1 92 - -
04:00 9,5 8,2   calma 12,9 1012,1 92 - -
04:05 9,6 8,3   calma 8,0 1012,4 92 0,50 -
04:10 9,6 8,3   calma   1012,1 92 0,50 -
04:15 9,6 8,3   calma   1012,1 92 0,80 -
04:20 9,6 8,3   calma   1012,1 92 0,80 -
04:25 9,6 8,3   calma   1012,1 92 0,80 -
04:30 9,6 8,3   calma   1012,1 92 0,80 -
04:35 9,7 8,4   calma   1012,1 92 0,80 -
04:40 9,7 8,4   calma   1012,1 92 0,80 -
04:45 9,7 8,4   calma   1012,1 92 1,30 -
04:50 9,7 8,4   calma   1011,7 92 1,30 -
04:55 9,8 8,5   calma 6,4 1011,7 92 1,50 -
05:00 9,8 8,5   calma   1011,7 92 1,50 -
05:05 9,8 8,5   calma   1011,7 92 1,50 -
05:10 9,8 8,5   calma   1011,7 92 2,30 -
05:15 9,8 8,5   calma   1011,4 92 2,00 -
05:20 9,8 8,5   calma   1011,7 92 2,00 -
05:25 9,8 8,5   calma   1011,4 92 2,00 -
05:30 9,8 8,5   calma   1011,4 92 2,00 -
05:35 9,8 8,5   calma   1011,7 92 2,00 -
05:40 9,7 8,4   calma   1011,4 92 2,00 -
05:45 9,7 8,4   calma   1011,4 92 1,50 -
05:50 9,6 8,3   calma   1011,4 92 1,50 -
05:55 9,6 8,3   calma 4,8 1011,4 92 1,30 -
06:00 9,5 8,2   calma   1011,7 92 1,30 -
06:05 9,5 8,2   calma   1011,7 92 0,80 -
06:10 9,6 8,3   calma   1011,4 92 - -
06:15 9,6 8,3   calma   1011,4 92 - -
06:20 9,6 8,3   calma   1011,4 92 - -
06:25 9,5 8,2   calma   1011,4 92 - -
06:30 9,4 8,2   calma   1011,4 92 - -
06:35 9,4 8,2   calma   1011,7 92 - -
06:40 9,4 8,2   calma   1011,7 92 - -
06:45 9,4 8,2   calma   1011,7 92 - -
06:50 9,5 8,2   calma   1011,7 92 - -
06:55 9,5 8,2   calma   1011,7 92 - -
07:00 9,5 8,2   calma   1011,7 92 - -
07:05 9,5 8,2   calma   1011,4 92 - -
07:10 9,5 8,2   calma   1011,4 92 - -
07:15 9,5 8,2   calma   1011,4 92 - -
07:20 9,5 8,2   calma   1011,4 92 - -
07:25 9,5 8,2   calma   1011,7 92 - -
07:30 9,5 8,2   calma   1011,7 92 - -
07:35 9,6 8,3   calma   1011,7 92 - -
07:40 9,7 8,4   calma   1011,7 92 - -
07:45 9,8 8,5   calma   1011,7 92 - -
07:50 9,8 8,5   calma   1011,7 92 - 7
07:55 9,7 8,3 8,0 SE 8,0 1011,7 91 - 9
08:00 9,7 8,3 4,8 SE 11,3 1011,7 91 - 9
08:05 9,7 8,2   calma 11,3 1011,7 91 - 11
08:10 9,6 8,2   calma 1,6 1011,7 91 - 11
08:15 9,6 8,3   calma 12,9 1011,7 92 - 12
08:20 9,7 8,2 1,6 SE 12,9 1011,7 91 - 12
08:25 9,7 8,4 4,8 SE 12,9 1011,7 92 - 14
08:30 9,7 8,3 1,6 S 16,1 1012,1 91 - 18
08:35 9,7 8,3   calma 11,3 1012,1 91 - 28
08:40 9,8 8,3   calma   1012,1 91 - 44
08:45 9,7 8,3 11,3 SE 11,3 1012,1 91 - 70
08:50 9,8 8,5   calma 9,7 1012,1 92 - 97
08:55 9,8 8,6   calma 16,1 1012,1 92 - 114
09:00 9,9 8,7   calma 1,6 1012,1 92 - 139
09:05 10,1 8,8   calma 14,5 1012,1 92 - 213
09:10 10,2 8,9 12,9 S 12,9 1012,1 92 - 315
09:15 10,4 9,1   calma 14,5 1012,4 92 - 239
09:20 10,6 9,3   calma 6,4 1012,4 92 - 279
09:25 10,7 9,2   calma 4,8 1012,4 91 - 410
09:30 10,8 9,4 12,9 S 16,1 1012,4 91 - 381
09:35 11,0 9,6   calma 16,1 1012,4 91 - 397
09:40 11,1 9,5   calma 16,1 1012,4 90 - 158
09:45 11,2 9,6 6,4 SE 8,0 1012,4 90 0,30 151
09:50 11,3 9,7 1,6 SE 12,9 1012,4 90 0,30 190
09:55 11,3 9,7   calma 6,4 1012,4 90 0,30 185
10:00 11,3 9,7   calma 3,2 1012,4 90 0,30 144
10:05 11,3 9,5   calma 14,5 1012,4 89 0,30 199
10:10 11,4 9,6 8,0 S 12,9 1012,4 89 0,30 230
10:15 11,5 9,7   calma 14,5 1012,4 89 0,30 250
10:20 11,5 9,6   calma 17,7 1012,8 88 0,30 185
10:25 11,5 9,6   calma 16,1 1012,8 88 0,30 111
10:30 11,4 9,5   calma 12,9 1012,8 88 0,30 176
10:35 11,5 9,6   calma   1012,8 88 0,30 232
10:40 11,7 9,7   calma   1012,8 88 0,30 299
10:45 11,8 9,9   calma   1012,8 88 - 315
10:50 12,1 10,1   calma 6,4 1012,8 88 - 158
10:55 12,1 10,0   calma   1012,8 87 - 171
11:00 12,2 10,1   calma 8,0 1012,8 87 - 172
11:05 12,3 10,2   calma   1012,8 87 - 279
11:10 12,5 10,2   calma 6,4 1012,8 86 - 250
11:15 12,6 9,9   calma 1,6 1012,4 84 - 325
11:20 12,8 9,9   calma   1012,4 83 - 199
11:25 12,9 9,7 1,6 S 9,7 1012,4 81 - 213
11:30 13,1 9,7   calma 8,0 1012,4 80 - 158
11:35 13,1 9,4 1,6 West 11,3 1012,4 79 - 118
11:40 13,0 9,4   calma 6,4 1012,4 79 - 151
11:45 13,0 9,4   calma 16,1 1012,4 79 - 204
11:50 13,0 9,4   calma   1012,4 79 - 244
11:55 13,0 9,2 3,2 Sud 17,7 1012,4 78 - 167
12:00 13,0 9,2 8,0 Sud 16,1 1012,4 78 - 239
12:05 13,0 9,1 11,3 SW 17,7 1012,1 77 - 211
12:10 13,1 9,1   calma 19,3 1012,1 77 - 573
12:15 13,3 9,3   calma 12,9 1012,1 77 - 617
12:20 13,5 9,5 1,6 SW 8,0 1012,1 77 - 192
12:25 13,4 9,4   calma 8,0 1012,1 77 - 246
12:30 13,4 9,4 1,6 S 3,2 1012,1 77 - 223
12:35 13,4 9,4 4,8 West 12,9 1012,1 77 - 274
12:40 13,3 9,2   calma 11,3 1012,1 76 - 206
12:45 13,3 8,9 3,2 Sud 8,0 1012,1 75 - 185
12:50 13,2 8,4   calma 11,3 1012,1 73 - 214
12:55 13,2 8,7 1,6 W 11,3 1012,1 74 - 202
13:00 13,3 8,7 3,2 Sud 12,9 1012,1 74 - 394
13:05 13,2 8,7 3,2 SE 16,1 1012,1 74 - 165
13:10 13,2 8,6 1,6 Oriente 8,0 1012,1 74 - 202
13:15 13,1 8,3   calma 11,3 1012,1 73 - 281
13:20 13,1 8,3 3,2 West 14,5 1012,1 73 - 165
13:25 13,1 8,3   calma 16,1 1012,1 73 - 221
13:30 13,2 8,2 6,4 Nord 17,7 1012,1 72 - 494
13:35 13,3 8,2 3,2 NE 14,5 1012,1 71 - 457
13:40 13,3 7,9 3,2 NO 14,5 1012,1 70 - 141
13:45 13,3 8,1 1,6 Sud 9,7 1012,1 71 - 230
13:50 13,2 8,0   calma 9,7 1012,1 71 - 278
13:55 13,2 7,8 4,8 West 11,3 1012,1 70 - 229
14:00 13,2 7,8 4,8 Nord 11,3 1012,1 70 - 432
14:05 13,3 7,7 3,2 Nord 9,7 1012,1 69 - 207
14:10 13,2 7,6 1,6 SE 8,0 1011,7 69 - 204
14:15 13,3 7,9   calma 4,8 1011,7 70 - 369
14:20 13,4 8,2 3,2 SE 12,9 1011,7 71 - 362
14:25 13,4 8,3 1,6 Nord 6,4 1011,7 71 - 353
14:30 13,4 8,3 6,4 W 14,5 1011,7 71 - 350
14:35 13,4 7,8 6,4 NO 11,3 1012,1 69 - 339
14:40 13,4 7,8 1,6 West 9,7 1011,7 69 - 396
14:45 13,6 8,2 1,6 S 12,9 1011,7 70 - 359
14:50 13,5 8,1   calma 9,7 1012,1 70 - 98
14:55 13,3 8,2   calma 14,5 1011,7 71 - 105
15:00 13,2 8,4 3,2 NNW 6,4 1011,7 73 - 139
15:05 13,1 8,3 3,2 SE 8,0 1011,7 73 - 113
15:10 13,0 8,2 3,2 SW 6,4 1011,7 73 - 281
15:15 13,1 8,1   calma 8,0 1011,7 72 - 283
15:20 13,1 8,2   calma 4,8 1011,7 72 - 79
15:25 13,1 8,1   calma 4,8 1011,7 72 - 77
15:30 13,0 8,1   calma 4,8 1012,1 72 - 84
15:35 12,9 8,0   calma 1,6 1012,1 72 - 93
15:40 12,9 8,1   calma 4,8 1012,1 73 - 253
15:45 12,9 8,1   calma 9,7 1012,1 73 - 146
15:50 12,8 8,3   calma 3,2 1012,1 74 - 114
15:55 12,8 8,1   calma 12,9 1012,1 73 - 127
16:00 12,7 7,7 1,6 NE 8,0 1012,1 72 - 67
16:05 12,6 7,6 1,6 W 11,3 1012,1 72 - 53
16:10 12,5 7,3   calma 4,8 1012,1 71 - 44
16:15 12,4 7,5   calma 4,8 1012,1 72 - 39
16:20 12,4 7,2   calma 3,2 1012,1 71 - 37
16:25 12,3 7,3   calma   1012,1 72 - 35
16:30 12,2 7,3   calma 3,2 1012,1 72 - 39
16:35 12,2 7,2   calma 4,8 1012,1 72 - 25
16:40 12,1 7,2   calma 1,6 1012,1 72 - 14
16:45 12,1 7,2   calma   1012,1 72 - 12
16:50 12,1 7,1   calma 1,6 1012,1 72 - 14
16:55 12,0 7,1   calma   1012,1 72 - 11
17:00 11,9 7,2   calma   1012,4 73 - 9
17:05 11,9 7,2   calma   1012,4 73 - 7
17:10 11,8 7,1   calma   1012,4 73 - -
17:15 11,8 7,1   calma   1012,1 73 - -
17:20 11,7 6,9   calma   1012,4 73 - -
17:25 11,6 6,8   calma   1012,4 73 - -
17:30 11,4 6,7   calma   1012,1 73 - -
17:35 11,3 6,8   calma   1012,1 74 - -
17:40 11,3 6,8   calma   1012,1 74 - -
17:45 11,2 6,7   calma 3,2 1012,1 74 - -
17:50 11,1 6,6   calma   1012,1 74 - -
17:55 11,1 6,6   calma   1012,1 74 - -
18:00 11,0 6,7   calma   1012,1 75 - -
18:05 10,9 6,7   calma   1012,4 75 - -
18:10 10,9 6,6   calma   1012,4 75 - -
18:15 10,8 6,6   calma   1012,4 75 - -
18:20 10,8 6,5   calma   1012,4 75 - -
18:25 10,7 6,4   calma   1012,4 75 - -
18:30 10,7 6,4   calma   1012,4 75 - -
18:35 10,7 6,4   calma   1012,4 75 - -
18:40 10,6 6,6   calma   1012,4 76 - -
18:45 10,6 6,5   calma   1012,4 76 - -
18:50 10,5 6,4   calma   1012,4 76 - -
18:55 10,4 6,4   calma   1012,8 76 - -
19:00 10,4 6,4   calma   1012,8 76 - -
19:05 10,4 6,4   calma   1012,8 76 - -
19:10 10,4 6,2   calma   1012,8 75 - -
19:15 10,5 6,2   calma   1012,4 75 - -
19:20 10,4 6,2   calma   1012,4 75 - -

Download your copy of this data-set  here

Our weather-data as stored at Weather Underground. Script sviluppato da Jim McMurry. Adattato per il modello da Leuven-Template.eu

Potete trovare le nostre info meteo anche a:

UK Metoffice

European Weather Network

Weather Underground

AWEKAS

Citizen Weather Observer Program (CWOP)

HAMweather, WeatherForYou, PWS Weather

Strumentazione usata:

Stazione meteo
Davis VP2

Programma gestore dati meteo
WVIEW

Server per i dati meteo
Pc-WDS5

Provider
PC-HP-6005

Davis VP2

WVIEW

Pc-WDS5

PC-HP-6005